Time;durP1;ratioP1;P1;durP2;ratioP2;P2;SDS_P1;SDS_P2;PMS_P1;PMS_P2;Temp;Humidity;BMP_temperature;BMP_pressure;BME280_temperature;BME280_humidity;BME280_pressure;Samples;Min_cycle;Max_cycle;Signal;HPM_P1;HPM_P2
2022/05/17 00:00:23;;;;;;;27.95;13.10;;;;;;;15.38;100.00;101856.78;5008798;28;20046;-78
2022/05/17 00:02:52;;;;;;;24.30;11.70;;;;;;;15.33;100.00;101861.19;5004850;28;20046;-78
2022/05/17 00:05:20;;;;;;;25.65;11.48;;;;;;;15.26;100.00;101855.03;4974292;28;20472;-78
2022/05/17 00:07:50;;;;;;;24.05;11.68;;;;;;;15.20;100.00;101855.91;5021740;28;20034;-78
2022/05/17 00:10:21;;;;;;;22.13;11.65;;;;;;;15.17;100.00;101860.31;5020457;28;20049;-78
2022/05/17 00:12:56;;;;;;;29.60;12.23;;;;;;;15.12;100.00;101867.41;4983399;28;20046;-77
2022/05/17 00:15:25;;;;;;;27.17;11.43;;;;;;;15.09;100.00;101865.63;5025225;28;20046;-77
2022/05/17 00:17:54;;;;;;;27.35;12.38;;;;;;;15.06;100.00;101862.09;5004107;28;20069;-79
2022/05/17 00:20:24;;;;;;;23.20;11.55;;;;;;;15.01;100.00;101865.63;5005796;28;20057;-78
2022/05/17 00:22:53;;;;;;;26.73;11.02;;;;;;;14.96;100.00;101862.06;4967598;28;20054;-78
2022/05/17 00:25:23;;;;;;;26.70;11.50;;;;;;;14.93;100.00;101871.81;4976799;28;20041;-77
2022/05/17 00:27:52;;;;;;;23.65;11.10;;;;;;;14.89;100.00;101865.59;4974352;28;20496;-78
2022/05/17 00:30:20;;;;;;;22.23;11.40;;;;;;;14.86;100.00;101870.91;5002257;28;20053;-78
2022/05/17 00:32:49;;;;;;;23.50;12.05;;;;;;;14.82;100.00;101872.69;5002543;28;20396;-78
2022/05/17 00:35:18;;;;;;;27.88;11.90;;;;;;;14.78;100.00;101864.69;4987914;28;20054;-78
2022/05/17 00:37:47;;;;;;;22.33;11.07;;;;;;;14.73;100.00;101862.03;4992526;28;20507;-78
2022/05/17 00:40:15;;;;;;;23.80;11.13;;;;;;;14.71;100.00;101854.97;4988751;28;20559;-78
2022/05/17 00:42:44;;;;;;;24.48;10.68;;;;;;;14.70;100.00;101862.03;4999106;28;20046;-79
2022/05/17 00:45:12;;;;;;;23.90;10.85;;;;;;;14.68;100.00;101852.31;4997634;28;20084;-79
2022/05/17 00:47:48;;;;;;;20.95;11.23;;;;;;;14.64;100.00;101864.66;4998823;28;20042;-79
2022/05/17 00:50:21;;;;;;;29.63;10.95;;;;;;;14.58;100.00;101854.06;5023966;28;20038;-78
2022/05/17 00:53:05;;;;;;;27.40;10.95;;;;;;;14.57;100.00;101857.56;5007925;28;20068;-79
2022/05/17 00:55:42;;;;;;;23.20;10.80;;;;;;;14.54;100.00;101858.44;4997932;28;20036;-78
2022/05/17 00:58:16;;;;;;;26.63;11.63;;;;;;;14.51;100.00;101863.72;4969488;28;20683;-79
2022/05/17 01:00:55;;;;;;;19.75;10.15;;;;;;;14.47;100.00;101859.28;4990077;28;20043;-78
2022/05/17 01:03:25;;;;;;;22.05;10.30;;;;;;;14.44;100.00;101859.25;4992474;28;20411;-79
2022/05/17 01:05:54;;;;;;;24.95;10.75;;;;;;;14.39;100.00;101863.69;4988828;28;20050;-79
2022/05/17 01:08:24;;;;;;;21.73;10.43;;;;;;;14.34;100.00;101870.72;4991351;28;20042;-77
2022/05/17 01:10:53;;;;;;;22.75;9.48;;;;;;;14.30;100.00;101867.19;5000618;28;20065;-78
2022/05/17 01:16:10;;;;;;;25.08;9.75;;;;;;;14.21;100.00;101867.13;4974067;28;20168;-78
2022/05/17 01:18:41;;;;;;;24.55;9.68;;;;;;;14.17;100.00;101870.66;4990489;28;20047;-77
2022/05/17 01:21:11;;;;;;;20.60;9.57;;;;;;;14.15;100.00;101864.47;4991654;28;20054;-78
2022/05/17 01:23:40;;;;;;;22.88;10.18;;;;;;;14.13;100.00;101860.91;4991176;28;20043;-78
2022/05/17 01:26:15;;;;;;;27.67;10.07;;;;;;;14.10;100.00;101858.25;5000712;28;20034;-78
2022/05/17 01:28:44;;;;;;;24.48;10.30;;;;;;;14.07;100.00;101859.13;4985760;28;20061;-78
2022/05/17 01:31:12;;;;;;;26.83;10.25;;;;;;;14.04;100.00;101854.72;4985940;28;20268;-79
2022/05/17 01:33:41;;;;;;;20.05;9.63;;;;;;;14.04;100.00;101852.06;5005042;28;20046;-79
2022/05/17 01:36:12;;;;;;;29.50;10.48;;;;;;;14.03;100.00;101855.56;4988977;28;20554;-78
2022/05/17 01:38:45;;;;;;;21.38;9.82;;;;;;;14.01;100.00;101854.69;5009365;28;20057;-79
2022/05/17 01:41:14;;;;;;;25.23;10.20;;;;;;;14.02;100.00;101860.88;4990320;28;20057;-78
2022/05/17 01:43:42;;;;;;;29.25;10.55;;;;;;;14.01;100.00;101867.94;4996826;28;20034;-79
2022/05/17 01:46:11;;;;;;;25.98;9.90;;;;;;;14.00;100.00;101866.16;4962648;28;20051;-78
2022/05/17 01:48:39;;;;;;;27.95;9.77;;;;;;;14.00;100.00;101874.09;5012693;28;20037;-80
2022/05/17 01:51:10;;;;;;;30.60;10.18;;;;;;;13.99;100.00;101860.88;5004413;28;20454;-78
2022/05/17 01:53:39;;;;;;;31.77;10.90;;;;;;;13.98;100.00;101867.03;5006722;28;20498;-79
2022/05/17 01:56:08;;;;;;;25.63;9.77;;;;;;;13.96;100.00;101868.78;4991344;28;20549;-78
2022/05/17 01:58:37;;;;;;;24.48;10.45;;;;;;;13.95;100.00;101867.91;5002533;28;20034;-78
2022/05/17 02:01:08;;;;;;;24.40;9.90;;;;;;;13.93;100.00;101869.66;5004497;28;20348;-78
2022/05/17 02:03:37;;;;;;;22.95;10.10;;;;;;;13.92;100.00;101867.88;4994963;28;20042;-77
2022/05/17 02:06:06;;;;;;;23.17;10.68;;;;;;;13.90;100.00;101864.34;4993877;28;20350;-78
2022/05/17 02:08:35;;;;;;;32.35;10.90;;;;;;;13.87;100.00;101864.31;4991726;28;20046;-77
2022/05/17 02:11:03;;;;;;;26.45;11.48;;;;;;;13.87;100.00;101869.59;5003285;28;20057;-77
2022/05/17 02:13:32;;;;;;;25.23;11.18;;;;;;;13.86;100.00;101862.56;5004158;28;20046;-77
2022/05/17 02:16:04;;;;;;;26.40;10.85;;;;;;;13.83;100.00;101858.09;4976113;28;20050;-77
2022/05/17 02:18:33;;;;;;;25.90;11.23;;;;;;;13.85;100.00;101866.06;4991748;28;20049;-77
2022/05/17 02:21:02;;;;;;;23.48;11.15;;;;;;;13.84;100.00;101859.88;4991293;28;20042;-78
2022/05/17 02:23:31;;;;;;;29.55;11.70;;;;;;;13.83;100.00;101860.75;4992417;28;20038;-78
2022/05/17 02:26:00;;;;;;;23.25;11.55;;;;;;;13.82;100.00;101866.06;4987608;28;20689;-78
2022/05/17 02:28:30;;;;;;;28.10;11.10;;;;;;;13.78;100.00;101865.16;4999455;28;20034;-78
2022/05/17 02:30:59;;;;;;;;;;;;;;;13.74;100.00;101868.66;4968363;28;20338;-77
2022/05/17 02:33:27;;;;;;;31.85;12.25;;;;;;;13.71;100.00;101868.63;5014244;28;19921;-77
2022/05/17 02:35:56;;;;;;;25.65;10.77;;;;;;;13.69;100.00;101865.09;5007840;28;20033;-80
2022/05/17 02:38:26;;;;;;;24.48;11.18;;;;;;;13.67;100.00;101879.19;4980402;28;20034;-77
2022/05/17 02:40:54;;;;;;;29.70;11.23;;;;;;;13.64;100.00;101872.13;4981521;28;20054;-79
2022/05/17 02:43:23;;;;;;;24.08;11.32;;;;;;;13.63;100.00;101880.97;5000643;28;20491;-78
2022/05/17 02:45:53;;;;;;;26.90;11.50;;;;;;;13.60;100.00;101873.84;4991746;28;20029;-78
2022/05/17 02:48:22;;;;;;;28.77;11.32;;;;;;;13.59;100.00;101879.13;5006159;28;20046;-78
2022/05/17 02:50:50;;;;;;;27.88;12.15;;;;;;;13.55;100.00;101867.63;4975396;28;20042;-78
2022/05/17 02:53:21;;;;;;;24.75;12.20;;;;;;;13.55;100.00;101872.94;4982463;28;20530;-78
2022/05/17 02:55:49;;;;;;;30.13;11.85;;;;;;;13.53;100.00;101877.31;4971759;28;20048;-78
2022/05/17 02:58:18;;;;;;;26.23;10.73;;;;;;;13.52;100.00;101880.88;5007393;28;20042;-78
2022/05/17 03:00:47;;;;;;;29.55;11.82;;;;;;;13.52;100.00;101880.00;4994886;28;20050;-78
2022/05/17 03:03:16;;;;;;;27.02;11.55;;;;;;;13.51;100.00;101883.50;4980984;28;20735;-78
2022/05/17 03:05:44;;;;;;;28.17;11.35;;;;;;;13.52;100.00;101885.28;4987793;28;20050;-78
2022/05/17 03:08:14;;;;;;;26.03;11.73;;;;;;;13.51;100.00;101879.09;4987152;28;20053;-78
2022/05/17 03:10:45;;;;;;;25.58;11.48;;;;;;;13.53;100.00;101887.91;4989474;28;20061;-78
2022/05/17 03:13:14;;;;;;;25.33;10.95;;;;;;;13.54;100.00;101892.34;4984739;28;20046;-78
2022/05/17 03:15:43;;;;;;;28.00;10.68;;;;;;;13.53;100.00;101895.88;4989370;28;20457;-78
2022/05/17 03:18:11;;;;;;;25.38;9.93;;;;;;;13.53;100.00;101893.22;4972905;28;20271;-78
2022/05/17 03:20:41;;;;;;;23.80;10.95;;;;;;;13.53;100.00;101895.00;4995716;28;20053;-78
2022/05/17 03:23:12;;;;;;;21.85;10.52;;;;;;;13.52;100.00;101896.75;4986001;28;20050;-78
2022/05/17 03:25:40;;;;;;;34.13;10.88;;;;;;;13.52;100.00;101899.41;4996388;28;20058;-78
2022/05/17 03:28:12;;;;;;;23.37;10.77;;;;;;;13.52;100.00;101891.47;4985043;28;20053;-77
2022/05/17 03:30:42;;;;;;;22.83;11.13;;;;;;;13.51;100.00;101892.31;4984652;28;20395;-77
2022/05/17 03:33:10;;;;;;;30.67;11.95;;;;;;;13.51;100.00;101902.91;4969044;28;20039;-78
2022/05/17 03:35:38;;;;;;;21.90;9.90;;;;;;;13.51;100.00;101894.09;4985916;28;20042;-79
2022/05/17 03:38:07;;;;;;;28.33;10.88;;;;;;;13.50;100.00;101909.09;4954551;28;20353;-77
2022/05/17 03:40:36;;;;;;;24.75;11.63;;;;;;;13.50;100.00;101908.22;4992323;28;20051;-77
2022/05/17 03:43:04;;;;;;;26.92;10.00;;;;;;;13.51;100.00;101904.69;4969959;28;20447;-77
2022/05/17 03:45:33;;;;;;;22.27;10.50;;;;;;;13.51;100.00;101905.56;4994114;28;20055;-77
2022/05/17 03:48:02;;;;;;;22.17;11.27;;;;;;;13.50;100.00;101906.44;4968263;28;20045;-78
2022/05/17 03:50:30;;;;;;;20.27;9.38;;;;;;;13.50;100.00;101911.75;5001989;28;20499;-77
2022/05/17 03:53:02;;;;;;;22.20;9.38;;;;;;;13.50;100.00;101910.88;4988357;28;20054;-78
2022/05/17 03:55:31;;;;;;;26.90;9.93;;;;;;;13.50;100.00;101910.88;4988565;28;20046;-78
2022/05/17 03:57:59;;;;;;;25.35;11.18;;;;;;;13.49;100.00;101915.25;4984474;28;20050;-78
2022/05/17 04:00:27;;;;;;;24.65;10.10;;;;;;;13.47;100.00;101903.78;4988736;28;20054;-78
2022/05/17 04:02:56;;;;;;;22.60;10.45;;;;;;;13.47;100.00;101914.34;4972424;28;20310;-78
2022/05/17 04:05:25;;;;;;;25.30;10.73;;;;;;;13.47;100.00;101926.72;5004778;28;20061;-78
2022/05/17 04:07:54;;;;;;;27.67;10.77;;;;;;;13.47;100.00;101921.44;4985434;28;20050;-77
2022/05/17 04:10:23;;;;;;;20.38;10.07;;;;;;;13.48;100.00;101917.88;4994141;28;20051;-78
2022/05/17 04:12:51;;;;;;;19.35;9.20;;;;;;;13.48;100.00;101926.75;4992726;28;20403;-78
2022/05/17 04:15:22;;;;;;;21.50;10.23;;;;;;;13.49;100.00;101920.56;4987879;28;20054;-78
2022/05/17 04:17:54;;;;;;;25.92;10.27;;;;;;;13.51;100.00;101912.63;4998269;28;20050;-78
2022/05/17 04:20:24;;;;;;;19.17;10.00;;;;;;;13.52;100.00;101920.59;4970910;28;20039;-78
2022/05/17 04:22:54;;;;;;;21.67;10.02;;;;;;;13.54;100.00;101912.66;4986152;28;20049;-78
2022/05/17 04:25:25;;;;;;;21.88;10.05;;;;;;;13.54;100.00;101918.84;5009773;28;20499;-78
2022/05/17 04:27:55;;;;;;;20.83;10.25;;;;;;;13.56;100.00;101929.44;4986607;28;20083;-78
2022/05/17 04:30:24;;;;;;;24.85;10.43;;;;;;;13.57;100.00;101921.53;4994662;28;20038;-78
2022/05/17 04:32:53;;;;;;;17.88;9.23;;;;;;;13.58;100.00;101923.28;4982171;28;20057;-78
2022/05/17 04:35:21;;;;;;;14.35;9.30;;;;;;;13.62;100.00;101925.06;4991993;28;20050;-78
2022/05/17 04:37:51;;;;;;;20.20;9.30;;;;;;;13.74;100.00;101926.03;5006001;28;20047;-78
2022/05/17 04:40:20;;;;;;;23.55;9.00;;;;;;;13.88;100.00;101919.09;5004431;28;20165;-78
2022/05/17 04:42:49;;;;;;;21.52;10.32;;;;;;;13.99;100.00;101929.75;4991735;28;20058;-78
2022/05/17 04:45:18;;;;;;;25.33;9.25;;;;;;;14.36;100.00;101922.88;4997137;28;20037;-78
2022/05/17 04:47:47;;;;;;;17.08;8.23;;;;;;;14.86;100.00;101928.41;4992931;28;20053;-78
2022/05/17 04:50:18;;;;;;;20.08;8.65;;;;;;;15.68;100.00;101926.72;4962152;28;20298;-78
2022/05/17 04:52:47;;;;;;;18.30;7.65;;;;;;;16.36;100.00;101930.16;4974398;28;20403;-78
2022/05/17 04:55:19;;;;;;;16.77;7.40;;;;;;;17.04;100.00;101920.06;4999126;28;20074;-78
2022/05/17 04:57:49;;;;;;;20.08;8.07;;;;;;;17.69;100.00;101920.47;4992037;28;20380;-79
2022/05/17 05:00:20;;;;;;;16.38;7.38;;;;;;;18.18;100.00;101918.22;4991699;28;20077;-78
2022/05/17 05:02:50;;;;;;;13.43;6.60;;;;;;;18.73;100.00;101917.50;5001274;28;20053;-79
2022/05/17 05:05:22;;;;;;;16.73;6.75;;;;;;;19.27;100.00;101922.09;4968102;28;20053;-78
2022/05/17 05:07:51;;;;;;;;;;;;;;;19.67;100.00;101932.13;4995365;28;20050;-79
2022/05/17 05:10:21;;;;;;;12.23;5.60;;;;;;;20.11;100.00;101935.78;4976216;28;20291;-78
2022/05/17 05:12:49;;;;;;;13.05;5.93;;;;;;;20.56;100.00;101933.09;4999166;28;20062;-78
2022/05/17 05:15:17;;;;;;;13.95;5.25;;;;;;;20.94;100.00;101938.56;4990876;28;20038;-78
2022/05/17 05:17:46;;;;;;;11.50;5.75;;;;;;;21.27;100.00;101939.59;4978914;28;20070;-79
2022/05/17 05:20:16;;;;;;;15.68;5.20;;;;;;;21.32;100.00;101936.78;4985307;28;20031;-82
2022/05/17 05:22:45;;;;;;;14.00;5.22;;;;;;;21.37;100.00;101935.75;5010032;28;20256;-78
2022/05/17 05:25:15;;;;;;;18.23;6.25;;;;;;;21.52;100.00;101937.19;5004098;28;20046;-78
2022/05/17 05:27:44;;;;;;;14.27;4.88;;;;;;;21.76;100.00;101941.06;4990355;28;20180;-78
2022/05/17 05:30:15;;;;;;;12.27;4.68;;;;;;;21.77;100.00;101934.75;5003206;28;20400;-78
2022/05/17 05:32:46;;;;;;;14.82;4.93;;;;;;;21.62;98.95;101945.88;4975836;28;20046;-79
2022/05/17 05:35:17;;;;;;;12.65;5.40;;;;;;;21.48;98.16;101943.56;4986230;28;20264;-79
2022/05/17 05:37:47;;;;;;;13.35;4.68;;;;;;;21.36;98.24;101944.72;4970125;28;20034;-79
2022/05/17 05:40:15;;;;;;;11.43;5.00;;;;;;;21.37;97.42;101942.91;4993036;28;20427;-79
2022/05/17 05:42:44;;;;;;;11.40;4.75;;;;;;;21.26;96.91;101947.66;5005686;28;20406;-79
2022/05/17 05:45:13;;;;;;;13.65;5.22;;;;;;;21.00;96.67;101952.72;4999855;28;20046;-79
2022/05/17 05:47:43;;;;;;;12.73;5.20;;;;;;;20.93;97.37;101947.53;4942007;28;20391;-79
2022/05/17 05:50:12;;;;;;;16.08;5.18;;;;;;;20.89;97.39;101948.50;4997938;28;20236;-79
2022/05/17 05:52:40;;;;;;;11.75;4.43;;;;;;;20.81;96.74;101957.59;4969868;28;20038;-78
2022/05/17 05:55:17;;;;;;;15.90;4.70;;;;;;;20.52;95.42;101959.97;4996815;28;20164;-78
2022/05/17 05:57:47;;;;;;;12.20;4.95;;;;;;;20.26;96.38;101948.00;4994378;28;20405;-79
2022/05/17 06:00:19;;;;;;;16.05;5.35;;;;;;;20.02;96.35;101960.06;4986947;28;20051;-77
2022/05/17 06:02:47;;;;;;;12.63;5.13;;;;;;;19.68;97.56;101949.94;5002215;28;20042;-78
2022/05/17 06:05:17;;;;;;;13.02;4.80;;;;;;;19.50;98.74;101960.94;4992610;28;20324;-79
2022/05/17 06:07:46;;;;;;;14.02;4.85;;;;;;;19.29;99.17;101968.38;4974506;28;20039;-79
2022/05/17 06:10:15;;;;;;;13.30;4.53;;;;;;;19.09;100.00;101964.22;4974873;28;20033;-78
2022/05/17 06:12:44;;;;;;;11.88;4.03;;;;;;;19.07;100.00;101962.47;4982256;28;20054;-79
2022/05/17 06:15:15;;;;;;;13.15;4.28;;;;;;;19.12;100.00;101963.28;5000079;28;20047;-78
2022/05/17 06:17:49;;;;;;;12.90;5.03;;;;;;;19.03;100.00;101963.41;4993779;28;20499;-78
2022/05/17 06:20:18;;;;;;;12.63;4.95;;;;;;;18.97;100.00;101969.72;4988994;28;20039;-78
2022/05/17 06:22:46;;;;;;;12.20;4.80;;;;;;;18.97;100.00;101976.88;4996626;28;20050;-79
2022/05/17 06:25:15;;;;;;;15.88;6.03;;;;;;;18.99;100.00;101972.38;4972356;28;20042;-79
2022/05/17 06:27:44;;;;;;;11.30;4.47;;;;;;;18.96;100.00;101981.34;5000649;28;20042;-79
2022/05/17 06:30:13;;;;;;;12.48;4.90;;;;;;;18.87;100.00;101982.34;4998479;28;20045;-81
2022/05/17 06:32:43;;;;;;;13.82;5.20;;;;;;;18.84;100.00;101985.03;5008214;28;20051;-80
2022/05/17 06:35:12;;;;;;;14.50;5.13;;;;;;;18.78;100.00;101987.75;4985193;28;20042;-81
2022/05/17 06:37:42;;;;;;;11.87;4.70;;;;;;;18.73;100.00;101991.38;4998409;28;20049;-79
2022/05/17 06:40:11;;;;;;;11.20;4.80;;;;;;;18.62;100.00;101994.19;4996119;28;20036;-79
2022/05/17 06:42:39;;;;;;;15.02;5.13;;;;;;;18.56;100.00;101989.78;4998640;28;20043;-78
2022/05/17 06:45:11;;;;;;;14.07;5.20;;;;;;;18.54;100.00;101988.94;4975308;28;20057;-78
2022/05/17 06:47:40;;;;;;;12.90;4.70;;;;;;;18.53;100.00;102005.00;5007300;28;20037;-80
2022/05/17 06:50:10;;;;;;;14.30;5.07;;;;;;;18.53;100.00;102008.53;4988406;28;20363;-81
2022/05/17 06:52:38;;;;;;;9.32;4.25;;;;;;;18.65;100.00;102004.84;4997978;28;20030;-79
2022/05/17 06:55:07;;;;;;;15.27;4.75;;;;;;;18.68;100.00;102008.34;4971769;28;20280;-79
2022/05/17 06:57:37;;;;;;;17.02;5.10;;;;;;;18.68;100.00;102013.69;4995133;28;20544;-80
2022/05/17 07:00:11;;;;;;;15.40;5.18;;;;;;;18.65;100.00;102015.50;4992506;28;20057;-79
2022/05/17 07:02:40;;;;;;;12.93;5.13;;;;;;;18.63;100.00;102022.66;5006294;28;20048;-80
2022/05/17 07:05:10;;;;;;;15.98;5.70;;;;;;;18.62;100.00;102023.53;4996930;28;20064;-80
2022/05/17 07:07:38;;;;;;;12.80;5.25;;;;;;;18.61;100.00;102030.69;5002299;28;20050;-79
2022/05/17 07:13:07;;;;;;;13.80;5.15;;;;;;;18.70;100.00;102022.56;5013413;28;20368;-79
2022/05/17 07:15:56;;;;;;;12.30;4.90;;;;;;;18.72;100.00;102038.56;5003612;28;20050;-79
2022/05/17 07:18:28;;;;;;;13.63;5.45;;;;;;;18.72;100.00;102038.56;5001242;28;20503;-79
2022/05/17 07:21:00;;;;;;;13.20;5.57;;;;;;;18.75;100.00;102032.28;4991763;28;20034;-80
2022/05/17 07:23:29;;;;;;;15.35;5.35;;;;;;;18.82;100.00;102034.91;5007639;28;20041;-79
2022/05/17 07:25:58;;;;;;;14.23;5.30;;;;;;;18.92;100.00;102037.47;4951714;28;23854;-80
2022/05/17 07:28:26;;;;;;;12.70;4.93;;;;;;;19.01;100.00;102040.91;4990938;28;20060;-80
2022/05/17 07:30:59;;;;;;;15.93;5.47;;;;;;;19.11;100.00;102043.44;5006029;28;20072;-80
2022/05/17 07:33:27;;;;;;;15.18;5.80;;;;;;;19.19;100.00;102046.94;4976859;28;20047;-80
2022/05/17 07:35:56;;;;;;;11.05;4.63;;;;;;;19.25;100.00;102049.50;4985916;28;20053;-80
2022/05/17 07:38:25;;;;;;;10.75;4.10;;;;;;;19.33;100.00;102046.72;4992862;28;20061;-80
2022/05/17 07:40:54;;;;;;;9.32;4.43;;;;;;;19.38;100.00;102053.78;5011974;28;20053;-80
2022/05/17 07:43:24;;;;;;;8.90;4.60;;;;;;;19.40;100.00;102046.59;5023811;28;20103;-80
2022/05/17 07:45:55;;;;;;;;;;;;;;;19.42;100.00;102054.63;5005730;28;20034;-80
2022/05/17 07:48:25;;;;;;;11.02;4.60;;;;;;;19.43;100.00;102056.34;4997356;28;20402;-80
2022/05/17 07:50:54;;;;;;;16.25;5.97;;;;;;;19.45;100.00;102054.53;5010932;28;20038;-79
2022/05/17 07:53:23;;;;;;;14.50;4.65;;;;;;;19.49;100.00;102050.94;5005287;28;20049;-82
2022/05/17 07:55:51;;;;;;;13.75;4.80;;;;;;;19.52;100.00;102056.22;5021338;28;20380;-81
2022/05/17 07:58:20;;;;;;;11.73;4.53;;;;;;;19.53;100.00;102057.09;4986331;28;20038;-82
2022/05/17 08:00:49;;;;;;;17.23;5.13;;;;;;;19.53;100.00;102062.44;4984959;28;20049;-82
2022/05/17 08:03:21;;;;;;;12.77;4.85;;;;;;;19.56;100.00;102063.28;5015346;28;20045;-82
2022/05/17 08:05:52;;;;;;;11.52;5.50;;;;;;;19.61;100.00;102069.47;5009191;28;20053;-81
2022/05/17 08:08:20;;;;;;;9.35;4.43;;;;;;;19.56;100.00;102073.13;5009529;28;20041;-81
2022/05/17 08:10:50;;;;;;;12.05;4.50;;;;;;;19.58;100.00;102068.63;5001311;28;20049;-81
2022/05/17 08:13:21;;;;;;;8.52;3.45;;;;;;;19.70;100.00;102068.44;4998790;28;20038;-81
2022/05/17 08:15:51;;;;;;;9.15;4.50;;;;;;;19.77;100.00;102067.50;5014346;28;20050;-81
2022/05/17 08:18:22;;;;;;;8.93;3.83;;;;;;;19.79;100.00;102076.38;5024456;28;20060;-81
2022/05/17 08:20:50;;;;;;;9.70;3.58;;;;;;;19.83;100.00;102079.88;5005856;28;20041;-81
2022/05/17 08:23:19;;;;;;;6.82;3.35;;;;;;;19.85;100.00;102073.59;5011435;28;20050;-82
2022/05/17 08:28:34;;;;;;;11.45;4.32;;;;;;;19.91;100.00;102075.28;4982625;28;20040;-81
2022/05/17 08:31:04;;;;;;;13.70;4.07;;;;;;;19.89;100.00;102073.56;4984924;28;20053;-81
2022/05/17 08:33:33;;;;;;;9.93;3.88;;;;;;;19.89;100.00;102071.75;5011221;28;20039;-82
2022/05/17 08:36:05;;;;;;;10.18;3.70;;;;;;;19.89;100.00;102065.53;4965994;28;20053;-81
2022/05/17 08:38:38;;;;;;;9.52;3.60;;;;;;;19.91;100.00;102077.09;5002692;28;20056;-81
2022/05/17 08:41:37;;;;;;;13.98;4.22;;;;;;;19.98;99.82;102082.31;5013121;28;20046;-81
2022/05/17 08:44:13;;;;;;;13.43;4.63;;;;;;;20.03;99.49;102076.88;4976950;28;20659;-81
2022/05/17 08:47:02;;;;;;;10.10;3.55;;;;;;;20.05;99.21;102083.06;5008849;28;20412;-82
2022/05/17 08:49:55;;;;;;;13.57;3.95;;;;;;;20.11;98.70;102082.97;5009112;28;20042;-82
2022/05/17 08:52:27;;;;;;;8.43;3.65;;;;;;;20.18;98.69;102075.72;5004457;28;20054;-81
2022/05/17 08:54:56;;;;;;;9.75;3.63;;;;;;;20.23;98.67;102082.75;4995229;28;20058;-79
2022/05/17 08:57:41;;;;;;;8.88;3.40;;;;;;;20.17;97.28;102087.31;4988527;28;20053;-78
2022/05/17 09:00:25;;;;;;;11.60;3.90;;;;;;;20.16;98.14;102082.91;4974678;28;20045;-78
2022/05/17 09:02:57;;;;;;;8.90;3.85;;;;;;;20.17;97.71;102087.31;4996461;28;20046;-81
2022/05/17 09:05:33;;;;;;;10.05;3.38;;;;;;;20.20;98.29;102084.59;5012419;28;20507;-82
2022/05/17 09:08:21;;;;;;;11.23;3.33;;;;;;;20.28;97.13;102089.81;5004750;28;20756;-81
2022/05/17 09:11:00;;;;;;;11.13;3.90;;;;;;;20.32;96.89;102091.53;5004934;28;20041;-82
2022/05/17 09:13:33;;;;;;;8.55;3.47;;;;;;;20.31;96.98;102087.09;5011005;28;20046;-82
2022/05/17 09:16:25;;;;;;;13.82;4.05;;;;;;;20.35;96.20;102092.34;4990469;28;20038;-80
2022/05/17 09:18:54;;;;;;;7.32;2.95;;;;;;;20.40;95.88;102098.53;5001282;28;20053;-81
2022/05/17 09:21:29;;;;;;;10.85;3.53;;;;;;;20.52;94.89;102088.50;5007572;28;20062;-81
2022/05/17 09:24:14;;;;;;;9.52;3.47;;;;;;;20.57;93.73;102087.50;5002006;28;20067;-82
2022/05/17 09:27:09;;;;;;;6.13;3.15;;;;;;;20.66;93.25;102096.31;4999206;28;20323;-81
2022/05/17 09:29:50;;;;;;;5.78;2.85;;;;;;;20.66;93.15;102093.63;5013797;28;20514;-80
2022/05/17 09:32:44;;;;;;;10.05;3.38;;;;;;;20.64;92.77;102099.91;4986306;28;20053;-80
2022/05/17 09:35:16;;;;;;;9.75;3.63;;;;;;;20.55;92.45;102097.38;5017196;28;20035;-81
2022/05/17 09:37:50;;;;;;;11.85;3.83;;;;;;;20.56;92.68;102098.25;5013937;28;20290;-81
2022/05/17 09:40:25;;;;;;;7.57;3.10;;;;;;;20.64;91.84;102104.34;5009026;28;20054;-82
2022/05/17 09:42:53;;;;;;;8.50;3.47;;;;;;;20.69;91.88;102104.28;5021361;28;20442;-81
2022/05/17 09:45:36;;;;;;;14.30;3.83;;;;;;;20.79;91.10;102103.19;5016468;28;20042;-81
2022/05/17 09:48:09;;;;;;;8.25;3.28;;;;;;;20.87;91.81;102108.38;4999786;28;20054;-82
2022/05/17 09:53:59;;;;;;;10.73;3.33;;;;;;;20.94;89.21;102113.59;5015337;28;20045;-82
2022/05/17 09:56:28;;;;;;;10.48;3.00;;;;;;;20.93;88.31;102113.66;5013872;28;20046;-81
2022/05/17 09:58:59;;;;;;;9.63;3.15;;;;;;;20.77;88.08;102102.34;5005459;28;20034;-81
2022/05/17 10:01:38;;;;;;;10.07;2.97;;;;;;;20.76;88.65;102113.97;5007760;28;20038;-80
2022/05/17 10:04:18;;;;;;;10.18;3.22;;;;;;;20.94;90.02;102105.56;4988777;28;20031;-80
2022/05/17 10:06:56;;;;;;;11.27;3.25;;;;;;;21.13;88.49;102106.06;4989408;28;20046;-81
2022/05/17 10:09:31;;;;;;;10.48;3.28;;;;;;;21.19;87.28;102094.31;4987772;28;20732;-81
2022/05/17 10:12:11;;;;;;;10.80;3.13;;;;;;;21.19;87.59;102097.91;4997602;28;20049;-81
2022/05/17 10:14:40;;;;;;;9.45;3.75;;;;;;;21.30;88.47;102105.69;5015245;28;20446;-82
2022/05/17 10:17:13;;;;;;;9.98;3.25;;;;;;;21.40;87.78;102101.03;4999931;28;20042;-81
2022/05/17 10:19:50;;;;;;;8.35;2.70;;;;;;;21.42;87.94;102105.44;4981484;28;20430;-81
2022/05/17 10:22:25;;;;;;;10.10;3.20;;;;;;;21.51;87.81;102096.34;4997958;28;20527;-81
2022/05/17 10:25:03;;;;;;;14.90;3.90;;;;;;;21.60;87.76;102092.56;4985757;28;20046;-80
2022/05/17 10:27:40;;;;;;;8.25;3.65;;;;;;;21.55;88.08;102092.69;5006565;28;20045;-80
2022/05/17 10:30:20;;;;;;;8.32;3.25;;;;;;;21.69;87.44;102086.13;5016973;28;20060;-80
2022/05/17 10:32:57;;;;;;;9.50;2.80;;;;;;;21.82;86.39;102081.34;5018427;28;20056;-81
2022/05/17 10:35:35;;;;;;;9.45;3.50;;;;;;;21.99;85.78;102097.91;4982878;28;20063;-81
2022/05/17 10:38:14;;;;;;;10.85;3.95;;;;;;;22.07;84.51;102090.53;5029425;28;20061;-81
2022/05/17 10:40:46;;;;;;;8.85;3.05;;;;;;;22.21;84.84;102090.16;5020141;28;20054;-81
2022/05/17 10:43:42;;;;;;;8.95;3.13;;;;;;;22.34;84.21;102091.69;5013234;28;20050;-82
2022/05/17 10:46:24;;;;;;;9.90;3.22;;;;;;;22.43;84.27;102082.47;5000043;28;20415;-80
2022/05/17 10:49:18;;;;;;;7.35;3.33;;;;;;;22.60;81.43;102090.06;5003851;28;20049;-80
2022/05/17 10:51:52;;;;;;;9.45;2.95;;;;;;;22.59;82.64;102082.97;4991749;28;20030;-80
2022/05/17 10:54:51;;;;;;;9.15;3.67;;;;;;;22.51;83.21;102088.53;4978364;28;20097;-81
2022/05/17 10:57:38;;;;;;;7.45;3.30;;;;;;;22.58;84.13;102090.13;4996711;28;20060;-80
2022/05/17 11:00:14;;;;;;;10.70;3.58;;;;;;;22.66;83.35;102089.03;5009847;28;20398;-81
2022/05/17 11:02:55;;;;;;;11.15;3.72;;;;;;;22.83;83.07;102088.56;5000858;28;20043;-81
2022/05/17 11:05:41;;;;;;;6.90;2.45;;;;;;;23.04;82.18;102084.38;4982105;28;20054;-81
2022/05/17 11:08:56;;;;;;;8.80;2.58;;;;;;;23.14;81.02;102080.53;5020372;28;20040;-80
2022/05/17 11:11:43;;;;;;;9.43;3.20;;;;;;;22.95;78.62;102083.72;5004958;28;20250;-84
2022/05/17 11:14:26;;;;;;;8.10;3.33;;;;;;;22.72;80.76;102088.84;5026037;28;20057;-81
2022/05/17 11:16:57;;;;;;;12.90;3.33;;;;;;;22.51;81.99;102083.16;5006067;28;20046;-81
2022/05/17 11:19:40;;;;;;;7.10;3.28;;;;;;;22.34;82.09;102085.41;5023460;28;20042;-81
2022/05/17 11:23:01;;;;;;;10.15;3.10;;;;;;;22.36;83.60;102081.78;5004357;28;20064;-79
2022/05/17 11:25:43;;;;;;;11.55;2.92;;;;;;;22.37;83.72;102077.28;5007847;28;20335;-79
2022/05/17 11:28:18;;;;;;;9.15;3.88;;;;;;;22.30;84.13;102078.34;5004568;28;20050;-79
2022/05/17 11:31:00;;;;;;;12.15;3.22;;;;;;;22.17;84.03;102075.97;4987976;28;20102;-80
2022/05/17 11:33:35;;;;;;;9.38;2.97;;;;;;;22.06;85.02;102080.72;4988008;28;20242;-79
2022/05/17 11:36:04;;;;;;;11.15;3.17;;;;;;;21.98;84.83;102080.94;4980105;28;20037;-79
2022/05/17 11:38:36;;;;;;;12.80;2.70;;;;;;;22.14;84.74;102077.84;4982832;28;20077;-79
2022/05/17 11:41:16;;;;;;;10.45;2.80;;;;;;;22.30;84.63;102078.34;5000961;28;20436;-80
2022/05/17 11:43:55;;;;;;;9.30;2.63;;;;;;;22.35;83.90;102076.44;4997117;28;20053;-80
2022/05/17 11:46:33;;;;;;;11.18;3.17;;;;;;;22.28;83.93;102077.50;4979482;28;20297;-80